Hebei Shijiazhuang — VRIS2 — position and weather

sailwx.info

Track history (hours):
 
Tides and Currents Weather Stations Pressure Air Temp Water Temp Dewpoint Dewpoint Depression Visibility Wind Speed Wind Dir Waves Ship Positions

Hebei Shijiazhuang

Last reported at 2017-Aug-16 09:56 UTC. Time now 2017-Aug-23 11:37 UTC.
Position N 37°48' E 122°32'.

Length 235 m.

Type: Cargo ship. MMSI: 477899000.

Date/timePositionNaut miles runAvg speedWind from/ knotsBaromVisibWave heightAir tempDewpointWater temp
2017-Aug-16 09:56N 37°48' E 122°32'714.7
2017-Aug-16 09:27N 37°52' E 122°25'914.4
2017-Aug-16 08:51N 37°56' E 122°15'514.4
2017-Aug-16 08:30N 37°59' E 122°10'2914.0
2017-Aug-16 06:24N 38°13' E 121°37'1014.0
2017-Aug-16 05:40N 38°19' E 121°26'314.3
2017-Aug-16 05:29N 38°20' E 121°23'10113.3
2017-Aug-15 21:56N 38°40' E 119°17'  
2017-Aug-08 10:58N 38°39' E 118°27'0 0.0
2017-Aug-08 03:01N 38°39' E 118°27'0 0.3
2017-Aug-08 02:55N 38°39' E 118°27'2 0.2
2017-Aug-07 15:44N 38°37' E 118°28'5 6.4
2017-Aug-07 15:00N 38°37' E 118°34'4511.4
2017-Aug-07 11:02N 38°39' E 119°32'011.3
2017-Aug-07 11:00N 38°39' E 119°32'2211.6
2017-Aug-07 09:06N 38°39' E 120°01'112.0
2017-Aug-07 09:00N 38°39' E 120°02'612.0
2017-Aug-07 08:30N 38°39' E 120°10'612.2
2017-Aug-07 08:00N 38°39' E 120°18'5011.2
2017-Aug-07 03:33N 38°24' E 121°18'0 0.5
2017-Aug-07 03:27N 38°24' E 121°18'14 2.5
2017-Aug-06 21:59N 38°18' E 121°33'  
Track history (hours):
 
Tides and Currents Weather Stations Pressure Air Temp Water Temp Dewpoint Dewpoint Depression Visibility Wind Speed Wind Dir Waves Ship Positions

Hebei Shijiazhuang

Last reported at 2017-Aug-16 09:56 UTC. Time now 2017-Aug-23 11:37 UTC.
Position N 37°48' E 122°32'.

Length 235 m.

Type: Cargo ship. MMSI: 477899000.

Date/timePositionNaut miles runAvg speedWind from/ knotsBaromVisibWave heightAir tempDewpointWater temp
2017-Aug-16 09:56N 37°48' E 122°32'714.7
2017-Aug-16 09:27N 37°52' E 122°25'914.4
2017-Aug-16 08:51N 37°56' E 122°15'514.4
2017-Aug-16 08:30N 37°59' E 122°10'2914.0
2017-Aug-16 06:24N 38°13' E 121°37'1014.0
2017-Aug-16 05:40N 38°19' E 121°26'314.3
2017-Aug-16 05:29N 38°20' E 121°23'10113.3
2017-Aug-15 21:56N 38°40' E 119°17'  
2017-Aug-08 10:58N 38°39' E 118°27'0 0.0
2017-Aug-08 03:01N 38°39' E 118°27'0 0.3
2017-Aug-08 02:55N 38°39' E 118°27'2 0.2
2017-Aug-07 15:44N 38°37' E 118°28'5 6.4
2017-Aug-07 15:00N 38°37' E 118°34'4511.4
2017-Aug-07 11:02N 38°39' E 119°32'011.3
2017-Aug-07 11:00N 38°39' E 119°32'2211.6
2017-Aug-07 09:06N 38°39' E 120°01'112.0
2017-Aug-07 09:00N 38°39' E 120°02'612.0
2017-Aug-07 08:30N 38°39' E 120°10'612.2
2017-Aug-07 08:00N 38°39' E 120°18'5011.2
2017-Aug-07 03:33N 38°24' E 121°18'0 0.5
2017-Aug-07 03:27N 38°24' E 121°18'14 2.5
2017-Aug-06 21:59N 38°18' E 121°33'  

Dump ship's entire track history